Time;durP1;ratioP1;P1;durP2;ratioP2;P2;SDS_P1;SDS_P2;PMS_P1;PMS_P2;Temp;Humidity;BMP_temperature;BMP_pressure;BME280_temperature;BME280_humidity;BME280_pressure;Samples;Min_cycle;Max_cycle;Signal;HPM_P1;HPM_P2
2023/07/18 00:00:25;;;;;;;;;;;29.20;99.90;;;;;;4994332;28;20105;-58
2023/07/18 00:02:51;;;;;;;19.02;7.90;;;29.20;99.90;;;;;;4989062;28;19936;-57
2023/07/18 00:05:17;;;;;;;21.17;8.13;;;29.20;99.90;;;;;;4988057;28;20561;-59
2023/07/18 00:07:44;;;;;;;15.70;7.18;;;29.20;99.90;;;;;;4981874;28;20019;-56
2023/07/18 00:10:11;;;;;;;23.30;8.05;;;29.20;99.90;;;;;;4984797;28;20386;-56
2023/07/18 00:12:37;;;;;;;16.95;7.20;;;29.20;99.90;;;;;;4978965;28;20038;-57
2023/07/18 00:15:07;;;;;;;26.95;8.77;;;29.20;99.90;;;;;;4980066;28;20121;-56
2023/07/18 00:17:34;;;;;;;21.95;8.60;;;29.20;99.90;;;;;;4997041;28;20061;-58
2023/07/18 00:20:04;;;;;;;23.75;7.50;;;29.20;99.90;;;;;;4977552;28;20034;-58
2023/07/18 00:22:30;;;;;;;24.08;8.55;;;29.20;99.90;;;;;;4975364;28;20023;-58
2023/07/18 00:24:56;;;;;;;22.08;8.45;;;29.20;99.90;;;;;;4987869;28;20498;-58
2023/07/18 00:27:22;;;;;;;22.20;8.15;;;29.20;99.90;;;;;;4975672;28;20023;-60
2023/07/18 00:29:48;;;;;;;21.42;7.82;;;29.20;99.90;;;;;;4988224;28;20026;-58
2023/07/18 00:32:14;;;;;;;23.30;8.32;;;29.20;99.90;;;;;;4993747;28;20034;-58
2023/07/18 00:34:41;;;;;;;25.00;7.97;;;29.20;99.90;;;;;;4993621;28;20049;-59
2023/07/18 00:37:07;;;;;;;26.55;8.82;;;29.20;99.90;;;;;;4990105;28;20026;-57
2023/07/18 00:39:33;;;;;;;17.50;7.65;;;29.20;99.90;;;;;;4993389;28;20426;-58
2023/07/18 00:42:00;;;;;;;20.23;7.07;;;29.30;99.90;;;;;;4992975;28;20026;-58
2023/07/18 00:44:26;;;;;;;21.13;8.35;;;29.30;99.90;;;;;;4990952;28;20014;-59
2023/07/18 00:46:52;;;;;;;20.23;8.13;;;29.30;99.90;;;;;;4992197;28;20025;-59
2023/07/18 00:49:18;;;;;;;24.13;8.43;;;29.20;99.90;;;;;;4987455;28;20019;-59
2023/07/18 00:51:44;;;;;;;18.23;8.35;;;29.20;99.90;;;;;;4990263;28;20019;-58
2023/07/18 00:54:10;;;;;;;17.55;8.55;;;29.30;99.90;;;;;;4987386;28;20034;-58
2023/07/18 00:56:36;;;;;;;20.13;7.93;;;29.30;99.90;;;;;;5003818;28;20483;-58
2023/07/18 00:59:05;;;;;;;25.98;8.35;;;29.20;99.90;;;;;;4983925;28;20076;-59
2023/07/18 01:01:32;;;;;;;21.92;8.35;;;29.20;99.90;;;;;;4991498;28;20502;-58
2023/07/18 01:03:58;;;;;;;15.25;7.85;;;29.30;99.90;;;;;;4983903;28;20074;-58
2023/07/18 01:06:24;;;;;;;21.42;7.80;;;29.20;99.90;;;;;;4982971;28;20026;-58
2023/07/18 01:08:50;;;;;;;15.70;7.18;;;29.20;99.90;;;;;;4984603;28;20026;-58
2023/07/18 01:11:16;;;;;;;21.23;6.53;;;29.20;99.90;;;;;;4984379;28;20027;-57
2023/07/18 01:13:42;;;;;;;16.27;7.47;;;29.20;99.90;;;;;;4982649;28;20022;-58
2023/07/18 01:16:08;;;;;;;19.23;7.70;;;29.20;99.90;;;;;;4977636;28;20035;-57
2023/07/18 01:18:33;;;;;;;21.02;7.22;;;29.20;99.90;;;;;;4988003;28;20030;-58
2023/07/18 01:21:01;;;;;;;16.60;7.35;;;29.20;99.90;;;;;;4974997;28;20506;-56
2023/07/18 01:23:28;;;;;;;18.80;6.15;;;29.20;99.90;;;;;;4989921;28;20055;-57
2023/07/18 01:25:54;;;;;;;23.13;8.07;;;29.10;99.90;;;;;;4992657;28;20113;-57
2023/07/18 01:28:20;;;;;;;21.23;6.97;;;29.10;99.90;;;;;;4991131;28;20030;-58
2023/07/18 01:30:46;;;;;;;23.55;7.53;;;29.10;99.90;;;;;;4989990;28;20022;-57
2023/07/18 01:33:12;;;;;;;17.98;7.32;;;29.10;99.90;;;;;;4989392;28;20025;-58
2023/07/18 01:35:38;;;;;;;18.80;6.65;;;29.10;99.90;;;;;;4990519;28;20108;-58
2023/07/18 01:38:03;;;;;;;19.40;6.95;;;29.20;99.90;;;;;;4989701;28;20422;-58
2023/07/18 01:40:29;;;;;;;23.50;6.75;;;29.20;99.90;;;;;;4993339;28;20031;-57
2023/07/18 01:42:57;;;;;;;16.48;6.60;;;29.20;99.90;;;;;;4990943;28;20019;-58
2023/07/18 01:45:24;;;;;;;17.45;7.03;;;29.20;99.90;;;;;;4992410;28;20383;-56
2023/07/18 01:47:51;;;;;;;;;;;29.20;99.90;;;;;;4989629;28;20096;-57
2023/07/18 01:50:17;;;;;;;28.80;11.70;;;29.20;99.90;;;;;;4989891;28;19992;-58
2023/07/18 01:52:44;;;;;;;21.50;9.85;;;29.20;99.90;;;;;;4989738;28;20466;-56
2023/07/18 01:55:10;;;;;;;19.25;7.13;;;29.20;99.90;;;;;;4989658;28;20557;-56
2023/07/18 01:57:35;;;;;;;15.07;5.93;;;29.20;99.90;;;;;;4983887;28;20099;-57
2023/07/18 02:00:02;;;;;;;16.00;7.22;;;29.20;99.90;;;;;;4988052;28;20033;-56
2023/07/18 02:02:28;;;;;;;22.48;10.60;;;29.20;99.90;;;;;;4987659;28;20050;-57
2023/07/18 02:04:53;;;;;;;16.42;6.40;;;29.20;99.90;;;;;;4984708;28;20038;-57
2023/07/18 02:07:19;;;;;;;15.70;7.28;;;29.20;99.90;;;;;;4981718;28;20106;-57
2023/07/18 02:09:45;;;;;;;14.35;5.68;;;29.20;99.90;;;;;;4988018;28;20022;-59
2023/07/18 02:12:11;;;;;;;20.80;7.45;;;29.20;99.90;;;;;;4981198;28;20360;-59
2023/07/18 02:14:37;;;;;;;20.27;6.65;;;29.20;99.90;;;;;;4993281;28;20081;-57
2023/07/18 02:17:04;;;;;;;17.42;5.40;;;29.20;99.90;;;;;;4981310;28;20045;-56
2023/07/18 02:19:29;;;;;;;14.15;5.35;;;29.20;99.90;;;;;;4982967;28;20475;-56
2023/07/18 02:21:55;;;;;;;16.17;5.65;;;29.20;99.90;;;;;;4974864;28;20088;-56
2023/07/18 02:24:21;;;;;;;18.73;5.70;;;29.20;99.90;;;;;;4988211;28;20065;-56
2023/07/18 02:26:47;;;;;;;19.05;6.07;;;29.20;99.90;;;;;;4985086;28;20216;-55
2023/07/18 02:29:13;;;;;;;15.82;4.57;;;29.20;99.90;;;;;;4981253;28;20031;-55
2023/07/18 02:31:39;;;;;;;14.93;5.05;;;29.20;99.90;;;;;;4989001;28;20486;-55
2023/07/18 02:34:05;;;;;;;15.40;4.83;;;29.20;99.90;;;;;;4991215;28;20522;-55
2023/07/18 02:36:32;;;;;;;16.27;6.55;;;29.20;99.90;;;;;;4989390;28;20041;-57
2023/07/18 02:38:59;;;;;;;18.48;4.85;;;29.20;99.90;;;;;;4991257;28;20042;-57
2023/07/18 02:41:25;;;;;;;19.80;5.40;;;29.20;99.90;;;;;;4991216;28;20034;-57
2023/07/18 02:43:50;;;;;;;16.98;5.00;;;29.30;99.90;;;;;;4989802;28;20022;-56
2023/07/18 02:46:16;;;;;;;16.77;4.97;;;29.30;99.90;;;;;;4989808;28;20035;-57
2023/07/18 02:48:42;;;;;;;15.57;4.60;;;29.30;99.90;;;;;;4990055;28;20031;-57
2023/07/18 02:51:08;;;;;;;17.88;4.78;;;29.30;99.90;;;;;;4985531;28;20109;-56
2023/07/18 02:53:34;;;;;;;16.58;6.15;;;29.30;99.90;;;;;;4988036;28;20106;-56
2023/07/18 02:55:59;;;;;;;15.93;4.95;;;29.30;99.90;;;;;;4986471;28;20140;-55
2023/07/18 02:58:25;;;;;;;13.20;6.63;;;29.40;99.90;;;;;;4987204;28;20022;-56
2023/07/18 03:00:51;;;;;;;12.23;4.82;;;29.40;99.90;;;;;;4980251;28;20561;-56
2023/07/18 03:03:17;;;;;;;14.60;5.00;;;29.40;99.90;;;;;;4992645;28;20021;-56
2023/07/18 03:05:43;;;;;;;15.65;5.15;;;29.50;99.90;;;;;;4985845;28;20023;-56
2023/07/18 03:08:08;;;;;;;18.38;5.32;;;29.50;99.90;;;;;;4985301;28;20482;-56
2023/07/18 03:10:36;;;;;;;9.82;4.68;;;29.50;99.90;;;;;;4983081;28;20033;-57
2023/07/18 03:13:02;;;;;;;14.02;5.03;;;29.50;99.90;;;;;;4981554;28;20046;-57
2023/07/18 03:15:28;;;;;;;35.80;7.35;;;29.50;99.90;;;;;;4985131;28;20034;-57
2023/07/18 03:17:54;;;;;;;26.67;5.88;;;29.50;99.90;;;;;;4985236;28;20534;-58
2023/07/18 03:20:20;;;;;;;13.43;4.28;;;29.50;99.90;;;;;;4979042;28;20034;-58
2023/07/18 03:22:47;;;;;;;19.73;4.38;;;29.50;99.90;;;;;;4986758;28;20101;-58
2023/07/18 03:25:13;;;;;;;10.13;4.53;;;29.50;99.90;;;;;;4980268;28;20051;-58
2023/07/18 03:27:39;;;;;;;22.58;4.55;;;29.50;99.90;;;;;;4985648;28;20483;-58
2023/07/18 03:30:06;;;;;;;12.90;4.50;;;29.50;99.90;;;;;;4993197;28;20049;-58
2023/07/18 03:32:33;;;;;;;16.88;4.78;;;29.50;99.90;;;;;;4993652;28;20113;-58
2023/07/18 03:34:59;;;;;;;15.67;4.17;;;29.50;99.90;;;;;;4989398;28;20038;-58
2023/07/18 03:37:28;;;;;;;19.45;5.65;;;29.50;99.90;;;;;;4984030;28;20011;-58
2023/07/18 03:39:54;;;;;;;10.32;4.97;;;29.50;99.90;;;;;;4994820;28;20109;-58
2023/07/18 03:42:21;;;;;;;17.17;4.68;;;29.50;99.90;;;;;;4991903;28;20142;-56
2023/07/18 03:44:47;;;;;;;15.48;5.30;;;29.50;99.90;;;;;;4995484;28;20145;-56
2023/07/18 03:47:12;;;;;;;15.40;4.55;;;29.50;99.90;;;;;;4992267;28;20113;-57
2023/07/18 03:49:38;;;;;;;12.23;4.47;;;29.60;99.90;;;;;;4990632;28;20023;-57
2023/07/18 03:52:05;;;;;;;13.02;4.65;;;29.60;99.90;;;;;;4991180;28;20030;-58
2023/07/18 03:54:33;;;;;;;15.30;6.22;;;29.60;99.90;;;;;;4990349;28;20027;-57
2023/07/18 03:56:59;;;;;;;13.98;5.43;;;29.70;99.90;;;;;;4988899;28;20026;-57
2023/07/18 03:59:25;;;;;;;8.50;4.10;;;29.70;99.90;;;;;;4989288;28;20427;-57
2023/07/18 04:01:52;;;;;;;18.05;5.55;;;29.70;99.90;;;;;;4988836;28;20085;-56
2023/07/18 04:04:18;;;;;;;13.85;5.47;;;29.70;99.90;;;;;;4981530;28;20078;-58
2023/07/18 04:06:43;;;;;;;16.58;5.72;;;29.70;99.90;;;;;;4992984;28;20394;-58
2023/07/18 04:09:12;;;;;;;16.00;5.20;;;29.70;99.90;;;;;;4981778;28;20022;-57
2023/07/18 04:11:41;;;;;;;14.15;5.70;;;29.70;99.90;;;;;;4983387;28;20034;-58
2023/07/18 04:14:07;;;;;;;17.58;5.60;;;29.70;99.90;;;;;;4984574;28;20479;-58
2023/07/18 04:16:33;;;;;;;16.88;5.97;;;29.70;99.90;;;;;;4984341;28;20046;-58
2023/07/18 04:18:59;;;;;;;17.58;5.50;;;29.70;99.90;;;;;;4977214;28;20023;-57
2023/07/18 04:21:25;;;;;;;18.42;5.20;;;29.70;99.90;;;;;;4976698;28;20503;-57
2023/07/18 04:23:51;;;;;;;23.27;5.20;;;29.60;99.90;;;;;;4980334;28;20109;-58
2023/07/18 04:26:17;;;;;;;19.67;6.57;;;29.60;99.90;;;;;;4994703;28;20054;-59
2023/07/18 04:28:43;;;;;;;18.98;5.60;;;29.60;99.90;;;;;;4993709;28;20435;-58
2023/07/18 04:31:09;;;;;;;14.73;4.80;;;29.60;99.90;;;;;;4993243;28;20114;-56
2023/07/18 04:33:36;;;;;;;17.30;5.18;;;29.60;99.90;;;;;;4991049;28;20479;-57
2023/07/18 04:36:04;;;;;;;12.52;5.38;;;29.60;99.90;;;;;;4992455;28;20049;-57
2023/07/18 04:38:30;;;;;;;19.38;5.93;;;29.50;99.90;;;;;;4991533;28;20022;-57
2023/07/18 04:40:56;;;;;;;21.08;6.32;;;29.50;99.90;;;;;;4993485;28;20041;-57
2023/07/18 04:43:22;;;;;;;22.38;6.50;;;29.40;99.90;;;;;;4992843;28;20042;-56
2023/07/18 04:45:48;;;;;;;19.58;5.53;;;29.40;99.90;;;;;;4990422;28;20519;-57
2023/07/18 04:48:18;;;;;;;29.98;7.22;;;29.40;99.90;;;;;;4992091;28;20026;-57
2023/07/18 04:50:57;;;;;;;24.80;7.80;;;29.30;99.90;;;;;;4988914;28;20118;-58
2023/07/18 04:53:26;;;;;;;26.20;9.55;;;29.30;99.90;;;;;;4982010;28;20027;-58
2023/07/18 04:55:52;;;;;;;30.25;9.63;;;29.20;99.90;;;;;;4988990;28;20026;-57
2023/07/18 04:58:18;;;;;;;32.72;8.70;;;29.20;99.90;;;;;;4989197;28;20088;-58
2023/07/18 05:00:44;;;;;;;26.95;7.15;;;29.20;99.90;;;;;;4984087;28;20047;-56
2023/07/18 05:03:10;;;;;;;25.25;7.70;;;29.10;99.90;;;;;;4990884;28;20035;-59
2023/07/18 05:05:36;;;;;;;22.73;5.85;;;29.10;99.90;;;;;;4985101;28;20026;-57
2023/07/18 05:08:03;;;;;;;22.60;6.65;;;29.00;99.90;;;;;;4982790;28;20491;-58
2023/07/18 05:10:29;;;;;;;15.75;6.25;;;29.00;99.90;;;;;;4984473;28;20030;-53
2023/07/18 05:12:56;;;;;;;13.57;5.85;;;29.00;99.90;;;;;;4984442;28;20554;-53
2023/07/18 05:15:22;;;;;;;13.85;5.45;;;28.90;99.90;;;;;;4990065;28;20097;-53
2023/07/18 05:17:49;;;;;;;19.35;6.15;;;28.90;99.90;;;;;;4977467;28;20093;-53
2023/07/18 05:20:15;;;;;;;21.87;5.67;;;28.90;99.90;;;;;;4980850;28;20024;-52
2023/07/18 05:22:44;;;;;;;16.60;5.25;;;28.90;99.90;;;;;;4977264;28;20023;-52
2023/07/18 05:25:14;;;;;;;21.77;5.82;;;28.90;99.90;;;;;;4977896;28;20022;-53
2023/07/18 05:27:40;;;;;;;14.80;5.53;;;28.90;99.90;;;;;;4976712;28;20563;-52
2023/07/18 05:30:14;;;;;;;20.23;5.93;;;28.90;99.90;;;;;;4976901;28;20058;-53
2023/07/18 05:32:41;;;;;;;18.08;6.32;;;28.90;99.90;;;;;;4982347;28;20025;-53
2023/07/18 05:35:11;;;;;;;17.80;6.18;;;29.00;99.90;;;;;;4991128;28;20101;-53
2023/07/18 05:37:38;;;;;;;21.38;5.18;;;29.00;99.90;;;;;;4990549;28;20077;-54
2023/07/18 05:40:05;;;;;;;18.60;6.07;;;29.00;99.90;;;;;;4992705;28;20031;-53
2023/07/18 05:42:31;;;;;;;;;;;29.00;99.90;;;;;;4987036;28;20033;-53
2023/07/18 05:44:57;;;;;;;17.75;6.38;;;29.00;99.90;;;;;;4992040;28;19910;-53
2023/07/18 05:47:23;;;;;;;21.17;6.63;;;29.00;99.90;;;;;;4988302;28;20674;-56
2023/07/18 05:49:49;;;;;;;16.15;5.70;;;29.00;99.90;;;;;;4989735;28;20069;-54
2023/07/18 05:52:14;;;;;;;22.88;6.07;;;29.00;99.90;;;;;;4986828;28;20490;-53
2023/07/18 05:54:40;;;;;;;18.02;6.13;;;29.00;99.90;;;;;;4988692;28;20030;-53
2023/07/18 05:57:06;;;;;;;19.83;7.30;;;29.00;99.90;;;;;;4987637;28;20045;-53
2023/07/18 05:59:32;;;;;;;16.38;5.97;;;29.00;99.90;;;;;;4982809;28;20019;-54
2023/07/18 06:01:59;;;;;;;20.98;5.88;;;29.00;99.90;;;;;;4989067;28;20055;-54
2023/07/18 06:04:25;;;;;;;24.10;6.65;;;29.10;99.90;;;;;;4980366;28;20118;-55
2023/07/18 06:06:50;;;;;;;19.75;6.65;;;29.10;99.90;;;;;;4984601;28;20491;-53
2023/07/18 06:09:16;;;;;;;25.92;6.57;;;29.10;99.90;;;;;;4984099;28;20125;-53
2023/07/18 06:11:42;;;;;;;22.65;5.85;;;29.10;99.90;;;;;;4984300;28;20030;-54
2023/07/18 06:14:08;;;;;;;18.17;5.70;;;29.20;99.90;;;;;;4977593;28;20395;-54
2023/07/18 06:16:34;;;;;;;27.83;6.55;;;29.20;99.90;;;;;;4978784;28;20547;-54
2023/07/18 06:19:00;;;;;;;25.75;6.80;;;29.20;99.90;;;;;;4986247;28;20015;-54
2023/07/18 06:21:26;;;;;;;23.98;7.80;;;29.20;99.90;;;;;;4977040;28;20061;-54
2023/07/18 06:23:55;;;;;;;24.33;6.40;;;29.20;99.90;;;;;;4980422;28;20026;-54
2023/07/18 06:26:22;;;;;;;23.45;7.38;;;29.20;99.90;;;;;;4992611;28;20108;-54
2023/07/18 06:28:48;;;;;;;18.10;6.03;;;29.30;99.90;;;;;;4980122;28;20034;-54
2023/07/18 06:31:14;;;;;;;17.05;6.28;;;29.30;99.90;;;;;;4983025;28;20053;-54
2023/07/18 06:33:40;;;;;;;15.52;5.80;;;29.20;99.90;;;;;;4979448;28;20057;-54
2023/07/18 06:36:06;;;;;;;22.35;6.70;;;29.30;99.90;;;;;;4989837;28;20046;-54
2023/07/18 06:38:32;;;;;;;22.17;6.68;;;29.30;99.90;;;;;;4987501;28;20022;-54
2023/07/18 06:40:58;;;;;;;18.60;6.47;;;29.30;99.90;;;;;;4978917;28;20026;-54
2023/07/18 06:43:24;;;;;;;18.45;6.60;;;29.30;99.90;;;;;;4987167;28;20023;-54
2023/07/18 06:45:50;;;;;;;25.13;6.38;;;29.30;99.90;;;;;;4981251;28;20019;-54
2023/07/18 06:48:17;;;;;;;18.83;5.32;;;29.40;99.90;;;;;;4989921;28;20077;-55
2023/07/18 06:50:47;;;;;;;22.90;6.38;;;29.30;99.90;;;;;;4986384;28;20073;-54
2023/07/18 06:53:18;;;;;;;15.93;5.45;;;29.30;99.90;;;;;;4979583;28;20487;-54
2023/07/18 06:55:44;;;;;;;21.13;6.30;;;29.40;99.90;;;;;;4989075;28;20114;-54
2023/07/18 06:58:10;;;;;;;19.70;6.18;;;29.40;99.90;;;;;;4986076;28;20105;-54
2023/07/18 07:00:36;;;;;;;28.67;6.28;;;29.40;99.90;;;;;;4983237;28;20536;-54
2023/07/18 07:03:02;;;;;;;23.08;5.80;;;29.40;99.90;;;;;;4987375;28;20446;-54
2023/07/18 07:05:28;;;;;;;25.05;7.57;;;29.40;99.90;;;;;;4983497;28;20026;-52
2023/07/18 07:07:54;;;;;;;21.70;6.97;;;29.50;99.90;;;;;;4979298;28;20426;-54
2023/07/18 07:10:20;;;;;;;18.65;5.88;;;29.40;99.90;;;;;;4985458;28;20030;-54
2023/07/18 07:12:46;;;;;;;21.02;6.63;;;29.40;99.90;;;;;;4982985;28;20208;-54
2023/07/18 07:15:11;;;;;;;25.95;6.60;;;29.50;99.90;;;;;;4978107;28;20504;-54
2023/07/18 07:17:38;;;;;;;19.23;6.53;;;29.50;99.90;;;;;;4973950;28;20498;-54
2023/07/18 07:20:06;;;;;;;28.47;8.00;;;29.50;99.90;;;;;;4975971;28;20022;-53
2023/07/18 07:22:32;;;;;;;20.08;6.28;;;29.50;99.90;;;;;;4986930;28;20500;-53
2023/07/18 07:24:58;;;;;;;24.38;6.50;;;29.50;99.90;;;;;;4976595;28;20534;-55
2023/07/18 07:27:24;;;;;;;15.43;6.22;;;29.60;99.90;;;;;;4987740;28;20027;-54
2023/07/18 07:29:50;;;;;;;22.10;7.10;;;29.60;99.90;;;;;;4980893;28;20035;-54
2023/07/18 07:32:15;;;;;;;26.02;7.60;;;29.60;99.90;;;;;;4976741;28;20019;-53
2023/07/18 07:34:42;;;;;;;25.98;6.45;;;29.60;99.90;;;;;;4982123;28;20034;-53
2023/07/18 07:37:08;;;;;;;29.60;6.07;;;29.70;99.90;;;;;;4992761;28;20490;-52
2023/07/18 07:39:35;;;;;;;25.95;7.25;;;29.70;99.90;;;;;;5005735;28;20096;-53
2023/07/18 07:42:01;;;;;;;28.27;8.27;;;29.70;99.90;;;;;;4990231;28;20026;-53
2023/07/18 07:44:27;;;;;;;26.58;7.53;;;29.70;99.90;;;;;;4970775;28;20034;-53
2023/07/18 07:46:54;;;;;;;22.88;7.25;;;29.70;99.90;;;;;;4990401;28;20447;-53
2023/07/18 07:49:21;;;;;;;23.27;6.85;;;29.80;99.90;;;;;;4979579;28;20023;-52
2023/07/18 07:51:46;;;;;;;27.58;7.45;;;29.80;99.90;;;;;;4990686;28;20073;-52
2023/07/18 07:54:12;;;;;;;21.88;7.25;;;29.80;99.90;;;;;;4989234;28;20027;-53
2023/07/18 07:56:38;;;;;;;17.30;6.45;;;29.80;99.90;;;;;;4989761;28;20479;-54
2023/07/18 07:59:04;;;;;;;25.88;7.20;;;29.90;99.90;;;;;;4977694;28;20031;-54
2023/07/18 08:01:30;;;;;;;28.92;7.03;;;29.90;99.90;;;;;;4992042;28;20046;-53
2023/07/18 08:03:55;;;;;;;19.40;6.53;;;29.90;99.90;;;;;;4984737;28;20022;-54
2023/07/18 08:06:21;;;;;;;31.52;7.57;;;29.90;99.90;;;;;;4983199;28;20023;-54
2023/07/18 08:08:47;;;;;;;23.80;6.70;;;30.00;99.90;;;;;;4985710;28;20030;-54
2023/07/18 08:11:12;;;;;;;24.25;7.43;;;29.90;99.90;;;;;;4984743;28;20038;-55
2023/07/18 08:13:38;;;;;;;27.80;8.05;;;30.00;99.90;;;;;;4983134;28;20032;-54
2023/07/18 08:16:05;;;;;;;20.25;6.47;;;30.00;99.90;;;;;;4978359;28;20070;-54
2023/07/18 08:18:31;;;;;;;25.20;5.97;;;30.00;99.90;;;;;;4990514;28;20058;-54
2023/07/18 08:20:57;;;;;;;22.48;6.28;;;30.10;99.90;;;;;;5000061;28;20027;-53
2023/07/18 08:23:23;;;;;;;63.63;10.05;;;30.10;99.90;;;;;;4986134;28;20038;-54
2023/07/18 08:25:49;;;;;;;28.75;7.15;;;30.20;99.90;;;;;;4985424;28;20042;-54
2023/07/18 08:28:15;;;;;;;20.85;5.68;;;30.20;99.90;;;;;;4987671;28;20029;-54
2023/07/18 08:30:40;;;;;;;25.42;7.47;;;30.20;99.90;;;;;;4985907;28;20026;-54
2023/07/18 08:33:08;;;;;;;20.48;7.05;;;30.20;99.90;;;;;;4979285;28;20023;-54
2023/07/18 08:35:34;;;;;;;27.00;7.20;;;30.20;99.90;;;;;;4982255;28;20092;-54
2023/07/18 08:38:00;;;;;;;17.95;6.47;;;30.30;99.90;;;;;;4993742;28;20475;-54
2023/07/18 08:40:25;;;;;;;22.00;6.63;;;30.30;99.90;;;;;;4993571;28;20026;-53
2023/07/18 08:42:51;;;;;;;24.92;7.00;;;30.30;99.90;;;;;;5007890;28;20021;-54
2023/07/18 08:45:22;;;;;;;20.95;7.13;;;30.40;99.90;;;;;;4993235;28;20042;-54
2023/07/18 08:47:51;;;;;;;24.67;6.68;;;30.40;99.90;;;;;;4981749;28;20076;-55
2023/07/18 08:50:17;;;;;;;18.48;6.38;;;30.30;99.90;;;;;;4987298;28;20047;-54
2023/07/18 08:52:43;;;;;;;17.55;6.07;;;30.30;99.90;;;;;;5007044;28;20022;-54
2023/07/18 08:55:09;;;;;;;18.60;6.80;;;30.40;99.90;;;;;;4992568;28;20132;-54
2023/07/18 08:57:35;;;;;;;18.42;7.10;;;30.40;99.90;;;;;;4987262;28;20023;-52
2023/07/18 09:00:04;;;;;;;18.47;5.27;;;30.40;99.90;;;;;;4985471;28;20018;-54
2023/07/18 09:02:30;;;;;;;20.98;6.82;;;30.40;99.90;;;;;;4988259;28;20042;-54
2023/07/18 09:04:56;;;;;;;17.58;6.43;;;30.40;99.90;;;;;;4985830;28;20014;-54
2023/07/18 09:07:27;;;;;;;17.15;5.93;;;30.40;99.90;;;;;;4985181;28;20081;-54
2023/07/18 09:09:54;;;;;;;19.67;7.20;;;30.50;99.90;;;;;;4992570;28;20019;-51
2023/07/18 09:12:20;;;;;;;20.25;6.57;;;30.40;99.90;;;;;;4981589;28;20034;-52
2023/07/18 09:14:46;;;;;;;22.58;6.88;;;30.50;99.90;;;;;;4980362;28;20030;-52
2023/07/18 09:17:12;;;;;;;18.40;7.32;;;30.50;99.90;;;;;;4990677;28;20062;-52
2023/07/18 09:19:40;;;;;;;20.00;6.95;;;30.50;99.90;;;;;;4977976;28;20058;-52
2023/07/18 09:22:07;;;;;;;18.73;6.72;;;30.60;99.90;;;;;;4984916;28;20018;-52
2023/07/18 09:24:35;;;;;;;;;;;30.60;99.90;;;;;;4987250;28;20046;-52
2023/07/18 09:27:02;;;;;;;17.02;6.47;;;30.60;99.90;;;;;;4982696;28;19905;-53
2023/07/18 09:29:28;;;;;;;18.15;6.97;;;30.60;99.90;;;;;;4998191;28;20030;-51
2023/07/18 09:31:55;;;;;;;19.00;7.57;;;30.60;99.90;;;;;;4990630;28;20134;-52
2023/07/18 09:34:20;;;;;;;17.90;6.40;;;30.70;99.90;;;;;;4978949;28;20074;-52
2023/07/18 09:36:58;;;;;;;23.38;7.25;;;30.70;99.90;;;;;;4976308;28;20038;-53
2023/07/18 09:39:24;;;;;;;21.77;7.25;;;30.70;99.90;;;;;;4991301;28;20076;-53
2023/07/18 09:41:51;;;;;;;17.63;6.47;;;30.70;99.90;;;;;;4993433;28;20018;-53
2023/07/18 09:44:19;;;;;;;21.40;6.82;;;30.80;99.90;;;;;;4989000;28;20027;-53
2023/07/18 09:46:44;;;;;;;15.73;7.07;;;30.80;99.90;;;;;;4992087;28;20156;-54
2023/07/18 09:49:11;;;;;;;21.02;6.60;;;30.80;99.90;;;;;;4984214;28;20114;-53
2023/07/18 09:51:38;;;;;;;19.73;6.95;;;30.80;99.90;;;;;;4991936;28;20154;-53
2023/07/18 09:54:06;;;;;;;29.20;7.25;;;30.80;99.90;;;;;;4987212;28;20106;-53
2023/07/18 09:56:39;;;;;;;16.02;7.47;;;30.90;99.90;;;;;;4988067;28;20072;-54
2023/07/18 09:59:07;;;;;;;18.00;10.45;;;30.90;99.90;;;;;;4988119;28;20022;-54
2023/07/18 10:01:35;;;;;;;19.90;8.43;;;30.90;99.90;;;;;;4985916;28;20141;-54
2023/07/18 10:04:03;;;;;;;27.73;7.40;;;30.90;99.90;;;;;;4987694;28;20085;-54
2023/07/18 10:06:29;;;;;;;;;;;30.90;99.90;;;;;;4998002;28;20019;-54
2023/07/18 10:08:55;;;;;;;13.93;6.65;;;31.00;99.90;;;;;;4982783;28;20351;-53
2023/07/18 10:11:21;;;;;;;22.05;7.03;;;30.90;99.90;;;;;;4982534;28;20062;-54
2023/07/18 10:13:55;;;;;;;13.95;6.97;;;31.00;99.90;;;;;;4978094;28;20077;-54
2023/07/18 10:16:22;;;;;;;22.10;7.22;;;31.00;99.90;;;;;;4975733;28;20042;-54
2023/07/18 10:18:50;;;;;;;18.90;7.35;;;30.90;99.90;;;;;;4975278;28;20073;-55
2023/07/18 10:21:32;;;;;;;19.77;7.25;;;31.00;99.90;;;;;;4978809;28;20138;-54
2023/07/18 10:24:21;;;;;;;20.65;7.78;;;31.00;99.90;;;;;;4978068;28;20029;-55
2023/07/18 10:26:59;;;;;;;17.75;8.75;;;31.00;99.90;;;;;;4988613;28;20113;-54
2023/07/18 10:29:32;;;;;;;20.80;6.97;;;31.00;99.90;;;;;;4982333;28;20053;-54
2023/07/18 10:32:02;;;;;;;17.63;6.93;;;31.00;99.90;;;;;;4989513;28;20033;-53
2023/07/18 10:34:28;;;;;;;16.42;7.20;;;31.10;99.90;;;;;;4996486;28;20113;-54
2023/07/18 10:36:59;;;;;;;19.27;7.78;;;31.00;99.90;;;;;;4980585;28;20106;-53
2023/07/18 10:39:40;;;;;;;21.13;7.47;;;31.10;99.90;;;;;;4989764;28;20100;-54
2023/07/18 10:42:21;;;;;;;17.67;7.80;;;31.10;99.90;;;;;;4990459;28;20026;-55
2023/07/18 10:44:48;;;;;;;19.45;7.63;;;31.10;99.90;;;;;;4980169;28;20018;-54
2023/07/18 10:47:18;;;;;;;24.67;7.57;;;31.10;99.90;;;;;;4990089;28;20101;-53
2023/07/18 10:49:47;;;;;;;18.27;7.25;;;31.10;99.90;;;;;;4991724;28;20027;-53
2023/07/18 10:52:13;;;;;;;21.20;7.47;;;31.10;99.90;;;;;;4986884;28;20121;-55
2023/07/18 10:54:51;;;;;;;24.42;6.32;;;31.10;99.90;;;;;;4987910;28;20057;-54
2023/07/18 10:57:22;;;;;;;15.73;8.25;;;31.10;99.90;;;;;;4983943;28;20026;-54
2023/07/18 10:59:48;;;;;;;17.67;7.65;;;31.10;99.90;;;;;;4988249;28;20402;-54
2023/07/18 11:02:14;;;;;;;18.08;7.70;;;31.10;99.90;;;;;;4988108;28;20055;-55
2023/07/18 11:04:40;;;;;;;24.52;8.32;;;31.20;99.90;;;;;;4978020;28;20038;-54
2023/07/18 11:07:05;;;;;;;26.75;7.47;;;31.20;99.90;;;;;;4987834;28;20022;-54
2023/07/18 11:09:34;;;;;;;22.35;8.80;;;31.20;99.90;;;;;;4984878;28;20379;-54
2023/07/18 11:12:00;;;;;;;21.60;7.85;;;31.20;99.90;;;;;;4981407;28;20109;-54
2023/07/18 11:14:40;;;;;;;20.05;7.97;;;31.20;99.90;;;;;;4976304;28;20098;-52
2023/07/18 11:17:13;;;;;;;23.05;8.20;;;31.20;99.90;;;;;;4992249;28;20583;-54
2023/07/18 11:19:39;;;;;;;23.98;8.43;;;31.30;99.90;;;;;;4988416;28;20027;-54
2023/07/18 11:22:06;;;;;;;21.15;8.02;;;31.20;99.90;;;;;;4989739;28;20391;-54
2023/07/18 11:24:33;;;;;;;;;;;31.20;99.90;;;;;;4987207;28;20032;-53
2023/07/18 11:27:16;;;;;;;21.45;7.55;;;31.30;99.90;;;;;;4986072;28;20008;-53
2023/07/18 11:29:54;;;;;;;20.40;7.78;;;31.30;99.90;;;;;;4991891;28;20057;-54
2023/07/18 11:32:30;;;;;;;23.33;7.25;;;31.30;99.90;;;;;;4988574;28;20473;-53
2023/07/18 11:34:58;;;;;;;22.60;7.82;;;31.30;99.90;;;;;;4978489;28;20027;-53
2023/07/18 11:37:24;;;;;;;21.25;8.43;;;31.30;99.90;;;;;;4979886;28;20117;-54
2023/07/18 11:39:50;;;;;;;23.50;8.13;;;31.40;99.90;;;;;;4995494;28;20015;-53
2023/07/18 11:42:17;;;;;;;22.17;7.30;;;31.30;99.90;;;;;;4994004;28;20049;-54
2023/07/18 11:44:44;;;;;;;20.30;8.20;;;31.30;99.90;;;;;;4993432;28;20089;-55
2023/07/18 11:47:10;;;;;;;21.48;7.25;;;31.30;99.90;;;;;;4993946;28;20061;-52
2023/07/18 11:49:36;;;;;;;19.53;7.90;;;31.40;99.90;;;;;;4993813;28;20018;-54
2023/07/18 11:52:08;;;;;;;22.50;7.35;;;31.40;99.90;;;;;;4992571;28;20310;-55
2023/07/18 11:54:35;;;;;;;20.45;7.28;;;31.40;99.90;;;;;;4984500;28;20045;-53
2023/07/18 11:57:03;;;;;;;17.95;7.28;;;31.40;99.90;;;;;;4988743;28;20030;-52
2023/07/18 11:59:30;;;;;;;24.08;8.13;;;31.40;99.90;;;;;;4994683;28;20037;-52
2023/07/18 12:01:56;;;;;;;22.55;7.25;;;31.30;99.90;;;;;;4977538;28;20089;-53
2023/07/18 12:04:22;;;;;;;19.40;7.72;;;31.40;99.90;;;;;;4988502;28;20038;-52
2023/07/18 12:06:48;;;;;;;20.17;8.02;;;31.40;99.90;;;;;;4991197;28;20032;-51
2023/07/18 12:09:15;;;;;;;23.83;8.18;;;31.40;99.90;;;;;;4993372;28;20031;-51
2023/07/18 12:11:41;;;;;;;29.15;7.68;;;31.40;99.90;;;;;;4989373;28;20054;-53
2023/07/18 12:14:08;;;;;;;22.45;8.52;;;31.40;99.90;;;;;;4994751;28;20030;-53
2023/07/18 12:16:36;;;;;;;22.63;7.55;;;31.40;99.90;;;;;;4994542;28;20612;-54
2023/07/18 12:19:02;;;;;;;25.77;8.55;;;31.40;99.90;;;;;;4983817;28;20118;-53
2023/07/18 12:21:28;;;;;;;22.00;8.30;;;31.40;99.90;;;;;;4993719;28;20026;-53
2023/07/18 12:23:54;;;;;;;20.13;8.90;;;31.40;99.90;;;;;;4986401;28;20379;-55
2023/07/18 12:26:20;;;;;;;24.75;7.65;;;31.40;99.90;;;;;;4979764;28;20030;-53
2023/07/18 12:28:46;;;;;;;18.63;8.05;;;31.50;99.90;;;;;;4998165;28;20083;-54
2023/07/18 12:31:11;;;;;;;29.02;7.75;;;31.50;99.90;;;;;;4990924;28;20030;-53
2023/07/18 12:33:38;;;;;;;22.60;10.25;;;31.50;99.90;;;;;;5008990;28;20033;-52
2023/07/18 12:36:05;;;;;;;26.07;8.57;;;31.50;99.90;;;;;;4994498;28;20403;-53